sensor_id;sensor_type;location;lat;lon;timestamp;temperature;humidity
20483;DHT22;10400;53.198;6.592;2023-08-21T00:00:06;17.80;99.90
20483;DHT22;10400;53.198;6.592;2023-08-21T00:02:32;17.80;99.90
20483;DHT22;10400;53.198;6.592;2023-08-21T00:04:58;17.70;99.90
20483;DHT22;10400;53.198;6.592;2023-08-21T00:07:24;17.70;99.90
20483;DHT22;10400;53.198;6.592;2023-08-21T00:09:49;17.70;99.90
20483;DHT22;10400;53.198;6.592;2023-08-21T00:12:15;17.60;99.90
20483;DHT22;10400;53.198;6.592;2023-08-21T00:14:41;17.70;99.90
20483;DHT22;10400;53.198;6.592;2023-08-21T00:17:07;17.70;99.90
20483;DHT22;10400;53.198;6.592;2023-08-21T00:19:33;17.60;99.90
20483;DHT22;10400;53.198;6.592;2023-08-21T00:22:00;17.60;99.90
20483;DHT22;10400;53.198;6.592;2023-08-21T00:24:25;17.60;99.90
20483;DHT22;10400;53.198;6.592;2023-08-21T00:26:51;17.60;99.90
20483;DHT22;10400;53.198;6.592;2023-08-21T00:29:17;17.60;99.90
20483;DHT22;10400;53.198;6.592;2023-08-21T00:31:42;17.60;99.90
20483;DHT22;10400;53.198;6.592;2023-08-21T00:34:08;17.60;99.90
20483;DHT22;10400;53.198;6.592;2023-08-21T00:36:34;17.50;99.90
20483;DHT22;10400;53.198;6.592;2023-08-21T00:38:59;17.40;99.90
20483;DHT22;10400;53.198;6.592;2023-08-21T00:41:25;17.50;99.90
20483;DHT22;10400;53.198;6.592;2023-08-21T00:43:50;17.40;99.90
20483;DHT22;10400;53.198;6.592;2023-08-21T00:46:16;17.40;99.90
20483;DHT22;10400;53.198;6.592;2023-08-21T00:48:43;17.40;99.90
20483;DHT22;10400;53.198;6.592;2023-08-21T00:51:10;17.40;99.90
20483;DHT22;10400;53.198;6.592;2023-08-21T00:53:36;17.30;99.90
20483;DHT22;10400;53.198;6.592;2023-08-21T00:56:02;17.30;99.90
20483;DHT22;10400;53.198;6.592;2023-08-21T00:58:28;17.30;99.90
20483;DHT22;10400;53.198;6.592;2023-08-21T01:00:54;17.30;99.90
20483;DHT22;10400;53.198;6.592;2023-08-21T01:03:20;17.20;99.90
20483;DHT22;10400;53.198;6.592;2023-08-21T01:05:45;17.20;99.90
20483;DHT22;10400;53.198;6.592;2023-08-21T01:08:21;17.10;99.90
20483;DHT22;10400;53.198;6.592;2023-08-21T01:14:28;17.10;99.90
20483;DHT22;10400;53.198;6.592;2023-08-21T01:17:00;17.00;99.90
20483;DHT22;10400;53.198;6.592;2023-08-21T01:19:35;17.10;99.90
20483;DHT22;10400;53.198;6.592;2023-08-21T01:22:01;17.00;99.90
20483;DHT22;10400;53.198;6.592;2023-08-21T01:24:27;17.00;99.90
20483;DHT22;10400;53.198;6.592;2023-08-21T01:26:53;16.90;99.90
20483;DHT22;10400;53.198;6.592;2023-08-21T01:29:19;16.90;99.90
20483;DHT22;10400;53.198;6.592;2023-08-21T01:31:50;16.90;99.90
20483;DHT22;10400;53.198;6.592;2023-08-21T01:34:18;16.90;99.90
20483;DHT22;10400;53.198;6.592;2023-08-21T01:36:45;16.90;99.90
20483;DHT22;10400;53.198;6.592;2023-08-21T01:39:11;16.90;99.90
20483;DHT22;10400;53.198;6.592;2023-08-21T01:41:36;16.80;99.90
20483;DHT22;10400;53.198;6.592;2023-08-21T01:44:02;16.80;99.90
20483;DHT22;10400;53.198;6.592;2023-08-21T01:46:28;16.80;99.90
20483;DHT22;10400;53.198;6.592;2023-08-21T01:48:53;16.80;99.90
20483;DHT22;10400;53.198;6.592;2023-08-21T01:51:19;16.80;99.90
20483;DHT22;10400;53.198;6.592;2023-08-21T01:53:46;16.80;99.90
20483;DHT22;10400;53.198;6.592;2023-08-21T01:56:12;16.70;99.90
20483;DHT22;10400;53.198;6.592;2023-08-21T01:58:38;16.70;99.90
20483;DHT22;10400;53.198;6.592;2023-08-21T02:01:03;16.70;99.90
20483;DHT22;10400;53.198;6.592;2023-08-21T02:03:30;16.60;99.90
20483;DHT22;10400;53.198;6.592;2023-08-21T02:05:56;16.60;99.90
20483;DHT22;10400;53.198;6.592;2023-08-21T02:08:25;16.60;99.90
20483;DHT22;10400;53.198;6.592;2023-08-21T02:10:52;16.50;99.90
20483;DHT22;10400;53.198;6.592;2023-08-21T02:13:18;16.40;99.90
20483;DHT22;10400;53.198;6.592;2023-08-21T02:15:44;16.30;99.90
20483;DHT22;10400;53.198;6.592;2023-08-21T02:18:10;16.30;99.90
20483;DHT22;10400;53.198;6.592;2023-08-21T02:20:36;16.20;99.90
20483;DHT22;10400;53.198;6.592;2023-08-21T02:23:01;16.30;99.90
20483;DHT22;10400;53.198;6.592;2023-08-21T02:25:27;16.30;99.90
20483;DHT22;10400;53.198;6.592;2023-08-21T02:27:52;16.30;99.90
20483;DHT22;10400;53.198;6.592;2023-08-21T02:30:18;16.20;99.90
20483;DHT22;10400;53.198;6.592;2023-08-21T02:32:44;16.20;99.90
20483;DHT22;10400;53.198;6.592;2023-08-21T02:35:09;16.20;99.90
20483;DHT22;10400;53.198;6.592;2023-08-21T02:37:36;16.20;99.90
20483;DHT22;10400;53.198;6.592;2023-08-21T02:40:05;16.20;99.90
20483;DHT22;10400;53.198;6.592;2023-08-21T02:42:33;16.20;99.90
20483;DHT22;10400;53.198;6.592;2023-08-21T02:44:59;16.20;99.90
20483;DHT22;10400;53.198;6.592;2023-08-21T02:47:24;16.20;99.90
20483;DHT22;10400;53.198;6.592;2023-08-21T02:49:50;16.10;99.90
20483;DHT22;10400;53.198;6.592;2023-08-21T02:52:17;16.10;99.90
20483;DHT22;10400;53.198;6.592;2023-08-21T02:54:43;16.20;99.90
20483;DHT22;10400;53.198;6.592;2023-08-21T02:57:09;16.20;99.90
20483;DHT22;10400;53.198;6.592;2023-08-21T02:59:35;16.10;99.90
20483;DHT22;10400;53.198;6.592;2023-08-21T03:02:00;16.10;99.90
20483;DHT22;10400;53.198;6.592;2023-08-21T03:04:26;16.10;99.90
20483;DHT22;10400;53.198;6.592;2023-08-21T03:06:51;16.00;99.90
20483;DHT22;10400;53.198;6.592;2023-08-21T03:09:17;16.00;99.90
20483;DHT22;10400;53.198;6.592;2023-08-21T03:11:43;16.00;99.90
20483;DHT22;10400;53.198;6.592;2023-08-21T03:14:08;16.00;99.90
20483;DHT22;10400;53.198;6.592;2023-08-21T03:16:34;15.90;99.90
20483;DHT22;10400;53.198;6.592;2023-08-21T03:19:00;15.90;99.90
20483;DHT22;10400;53.198;6.592;2023-08-21T03:21:26;15.90;99.90
20483;DHT22;10400;53.198;6.592;2023-08-21T03:23:55;15.90;99.90
20483;DHT22;10400;53.198;6.592;2023-08-21T03:26:21;15.80;99.90
20483;DHT22;10400;53.198;6.592;2023-08-21T03:28:47;15.80;99.90
20483;DHT22;10400;53.198;6.592;2023-08-21T03:31:12;15.70;99.90
20483;DHT22;10400;53.198;6.592;2023-08-21T03:33:38;15.70;99.90
20483;DHT22;10400;53.198;6.592;2023-08-21T03:36:04;15.70;99.90
20483;DHT22;10400;53.198;6.592;2023-08-21T03:38:30;15.60;99.90
20483;DHT22;10400;53.198;6.592;2023-08-21T03:40:55;15.70;99.90
20483;DHT22;10400;53.198;6.592;2023-08-21T03:43:21;15.60;99.90
20483;DHT22;10400;53.198;6.592;2023-08-21T03:45:46;15.60;99.90
20483;DHT22;10400;53.198;6.592;2023-08-21T03:48:12;15.60;99.90
20483;DHT22;10400;53.198;6.592;2023-08-21T03:50:38;15.60;99.90
20483;DHT22;10400;53.198;6.592;2023-08-21T03:53:04;15.70;99.90
20483;DHT22;10400;53.198;6.592;2023-08-21T03:55:30;15.60;99.90
20483;DHT22;10400;53.198;6.592;2023-08-21T03:57:56;15.60;99.90
20483;DHT22;10400;53.198;6.592;2023-08-21T04:00:22;15.60;99.90
20483;DHT22;10400;53.198;6.592;2023-08-21T04:02:47;15.60;99.90
20483;DHT22;10400;53.198;6.592;2023-08-21T04:05:13;15.60;99.90
20483;DHT22;10400;53.198;6.592;2023-08-21T04:07:39;15.70;99.90
20483;DHT22;10400;53.198;6.592;2023-08-21T04:10:05;15.70;99.90
20483;DHT22;10400;53.198;6.592;2023-08-21T04:12:31;15.70;99.90
20483;DHT22;10400;53.198;6.592;2023-08-21T04:14:57;15.70;99.90
20483;DHT22;10400;53.198;6.592;2023-08-21T04:17:23;15.70;99.90
20483;DHT22;10400;53.198;6.592;2023-08-21T04:19:49;15.70;99.90
20483;DHT22;10400;53.198;6.592;2023-08-21T04:22:15;15.70;99.90
20483;DHT22;10400;53.198;6.592;2023-08-21T04:24:41;15.60;99.90
20483;DHT22;10400;53.198;6.592;2023-08-21T04:27:07;15.60;99.90
20483;DHT22;10400;53.198;6.592;2023-08-21T04:29:33;15.60;99.90
20483;DHT22;10400;53.198;6.592;2023-08-21T04:31:58;15.60;99.90
20483;DHT22;10400;53.198;6.592;2023-08-21T04:34:24;15.50;99.90
20483;DHT22;10400;53.198;6.592;2023-08-21T04:36:49;15.60;99.90
20483;DHT22;10400;53.198;6.592;2023-08-21T04:39:15;15.60;99.90
20483;DHT22;10400;53.198;6.592;2023-08-21T04:41:41;15.60;99.90
20483;DHT22;10400;53.198;6.592;2023-08-21T04:44:07;15.60;99.90
20483;DHT22;10400;53.198;6.592;2023-08-21T04:46:33;15.60;99.90
20483;DHT22;10400;53.198;6.592;2023-08-21T04:48:58;15.60;99.90
20483;DHT22;10400;53.198;6.592;2023-08-21T04:51:24;15.70;99.90
20483;DHT22;10400;53.198;6.592;2023-08-21T04:53:50;15.70;99.90
20483;DHT22;10400;53.198;6.592;2023-08-21T04:56:15;15.70;99.90
20483;DHT22;10400;53.198;6.592;2023-08-21T04:58:41;15.70;99.90
20483;DHT22;10400;53.198;6.592;2023-08-21T05:01:06;15.70;99.90
20483;DHT22;10400;53.198;6.592;2023-08-21T05:03:32;15.80;99.90
20483;DHT22;10400;53.198;6.592;2023-08-21T05:05:58;15.80;99.90
20483;DHT22;10400;53.198;6.592;2023-08-21T05:08:24;15.90;99.90
20483;DHT22;10400;53.198;6.592;2023-08-21T05:10:57;15.90;99.90
20483;DHT22;10400;53.198;6.592;2023-08-21T05:13:23;16.00;99.90
20483;DHT22;10400;53.198;6.592;2023-08-21T05:15:53;16.00;99.90
20483;DHT22;10400;53.198;6.592;2023-08-21T05:18:20;16.10;99.90
20483;DHT22;10400;53.198;6.592;2023-08-21T05:20:47;16.20;99.90
20483;DHT22;10400;53.198;6.592;2023-08-21T05:23:13;16.20;99.90
20483;DHT22;10400;53.198;6.592;2023-08-21T05:25:39;16.20;99.90
20483;DHT22;10400;53.198;6.592;2023-08-21T05:28:05;16.30;99.90
20483;DHT22;10400;53.198;6.592;2023-08-21T05:30:31;16.30;99.90
20483;DHT22;10400;53.198;6.592;2023-08-21T05:32:57;16.40;99.90
20483;DHT22;10400;53.198;6.592;2023-08-21T05:35:22;16.50;99.90
20483;DHT22;10400;53.198;6.592;2023-08-21T05:37:48;16.50;99.90
20483;DHT22;10400;53.198;6.592;2023-08-21T05:40:14;16.60;99.90
20483;DHT22;10400;53.198;6.592;2023-08-21T05:42:39;16.60;99.90
20483;DHT22;10400;53.198;6.592;2023-08-21T05:45:06;16.70;99.90
20483;DHT22;10400;53.198;6.592;2023-08-21T05:47:31;16.80;99.90
20483;DHT22;10400;53.198;6.592;2023-08-21T05:49:57;16.90;99.90
20483;DHT22;10400;53.198;6.592;2023-08-21T05:52:23;17.00;99.90
20483;DHT22;10400;53.198;6.592;2023-08-21T05:54:49;17.10;99.90
20483;DHT22;10400;53.198;6.592;2023-08-21T05:57:14;17.20;99.90
20483;DHT22;10400;53.198;6.592;2023-08-21T05:59:48;17.30;99.90
20483;DHT22;10400;53.198;6.592;2023-08-21T06:02:14;17.40;99.90
20483;DHT22;10400;53.198;6.592;2023-08-21T06:04:41;17.50;99.90
20483;DHT22;10400;53.198;6.592;2023-08-21T06:07:07;17.60;99.90
20483;DHT22;10400;53.198;6.592;2023-08-21T06:09:32;17.70;99.90
20483;DHT22;10400;53.198;6.592;2023-08-21T06:12:02;17.70;99.90
20483;DHT22;10400;53.198;6.592;2023-08-21T06:14:28;17.80;99.90
20483;DHT22;10400;53.198;6.592;2023-08-21T06:17:01;17.90;99.90
20483;DHT22;10400;53.198;6.592;2023-08-21T06:19:27;18.00;99.90
20483;DHT22;10400;53.198;6.592;2023-08-21T06:21:55;18.10;99.90
20483;DHT22;10400;53.198;6.592;2023-08-21T06:24:21;18.20;99.90
20483;DHT22;10400;53.198;6.592;2023-08-21T06:26:48;18.20;99.90
20483;DHT22;10400;53.198;6.592;2023-08-21T06:29:14;18.30;99.90
20483;DHT22;10400;53.198;6.592;2023-08-21T06:31:39;18.30;99.90
20483;DHT22;10400;53.198;6.592;2023-08-21T06:34:05;18.50;99.90
20483;DHT22;10400;53.198;6.592;2023-08-21T06:36:31;18.60;99.90
20483;DHT22;10400;53.198;6.592;2023-08-21T06:38:57;18.70;99.90
20483;DHT22;10400;53.198;6.592;2023-08-21T06:41:22;18.80;99.90
20483;DHT22;10400;53.198;6.592;2023-08-21T06:43:48;18.80;99.90
20483;DHT22;10400;53.198;6.592;2023-08-21T06:46:14;18.90;99.90
20483;DHT22;10400;53.198;6.592;2023-08-21T06:48:40;19.00;99.90
20483;DHT22;10400;53.198;6.592;2023-08-21T06:51:10;19.10;99.90
20483;DHT22;10400;53.198;6.592;2023-08-21T06:53:36;19.20;99.90
20483;DHT22;10400;53.198;6.592;2023-08-21T06:56:02;19.30;99.90
20483;DHT22;10400;53.198;6.592;2023-08-21T06:58:28;19.40;99.90
20483;DHT22;10400;53.198;6.592;2023-08-21T07:00:54;19.50;99.90
20483;DHT22;10400;53.198;6.592;2023-08-21T07:03:22;19.60;99.90
20483;DHT22;10400;53.198;6.592;2023-08-21T07:05:54;19.60;99.90
20483;DHT22;10400;53.198;6.592;2023-08-21T07:08:20;19.80;99.90
20483;DHT22;10400;53.198;6.592;2023-08-21T07:10:46;19.80;99.90
20483;DHT22;10400;53.198;6.592;2023-08-21T07:13:12;19.80;99.90
20483;DHT22;10400;53.198;6.592;2023-08-21T07:15:37;19.80;99.90
20483;DHT22;10400;53.198;6.592;2023-08-21T07:18:03;19.90;99.90
20483;DHT22;10400;53.198;6.592;2023-08-21T07:20:29;20.00;99.90
20483;DHT22;10400;53.198;6.592;2023-08-21T07:22:54;20.20;99.90
20483;DHT22;10400;53.198;6.592;2023-08-21T07:25:20;20.30;99.90
20483;DHT22;10400;53.198;6.592;2023-08-21T07:27:46;20.40;99.90
20483;DHT22;10400;53.198;6.592;2023-08-21T07:30:12;20.40;99.90
20483;DHT22;10400;53.198;6.592;2023-08-21T07:32:37;20.60;99.90
20483;DHT22;10400;53.198;6.592;2023-08-21T07:35:03;20.60;99.90
20483;DHT22;10400;53.198;6.592;2023-08-21T07:37:29;20.70;99.90
20483;DHT22;10400;53.198;6.592;2023-08-21T07:39:56;20.70;99.90
20483;DHT22;10400;53.198;6.592;2023-08-21T07:42:23;20.70;99.90
20483;DHT22;10400;53.198;6.592;2023-08-21T07:44:49;20.90;99.90
20483;DHT22;10400;53.198;6.592;2023-08-21T07:47:15;21.10;99.90
20483;DHT22;10400;53.198;6.592;2023-08-21T07:49:41;21.00;99.90
20483;DHT22;10400;53.198;6.592;2023-08-21T07:52:07;21.00;99.90
20483;DHT22;10400;53.198;6.592;2023-08-21T07:54:32;21.20;97.50
20483;DHT22;10400;53.198;6.592;2023-08-21T07:56:58;21.40;90.80
20483;DHT22;10400;53.198;6.592;2023-08-21T07:59:24;21.50;91.40
20483;DHT22;10400;53.198;6.592;2023-08-21T08:01:50;21.50;80.10
20483;DHT22;10400;53.198;6.592;2023-08-21T08:04:16;21.60;71.30
20483;DHT22;10400;53.198;6.592;2023-08-21T08:06:42;21.80;69.20
20483;DHT22;10400;53.198;6.592;2023-08-21T08:09:07;21.90;67.50
20483;DHT22;10400;53.198;6.592;2023-08-21T08:14:08;21.90;52.30
20483;DHT22;10400;53.198;6.592;2023-08-21T08:16:34;22.00;36.60
20483;DHT22;10400;53.198;6.592;2023-08-21T08:19:00;22.00;35.10
20483;DHT22;10400;53.198;6.592;2023-08-21T08:21:25;22.10;26.60
20483;DHT22;10400;53.198;6.592;2023-08-21T08:23:51;22.00;28.00
20483;DHT22;10400;53.198;6.592;2023-08-21T08:26:16;22.10;13.60
20483;DHT22;10400;53.198;6.592;2023-08-21T08:28:42;22.30;13.50
20483;DHT22;10400;53.198;6.592;2023-08-21T08:31:17;22.40;1.00
20483;DHT22;10400;53.198;6.592;2023-08-21T08:33:43;22.60;1.00
20483;DHT22;10400;53.198;6.592;2023-08-21T08:36:09;22.60;1.00
20483;DHT22;10400;53.198;6.592;2023-08-21T08:38:34;22.60;1.00
20483;DHT22;10400;53.198;6.592;2023-08-21T08:41:02;22.70;1.00
20483;DHT22;10400;53.198;6.592;2023-08-21T08:43:28;22.80;1.00
20483;DHT22;10400;53.198;6.592;2023-08-21T08:45:57;22.90;1.00
20483;DHT22;10400;53.198;6.592;2023-08-21T08:48:24;22.90;1.00
20483;DHT22;10400;53.198;6.592;2023-08-21T08:50:51;23.00;1.00
20483;DHT22;10400;53.198;6.592;2023-08-21T08:53:18;22.80;1.00
20483;DHT22;10400;53.198;6.592;2023-08-21T08:55:44;22.90;1.00
20483;DHT22;10400;53.198;6.592;2023-08-21T08:58:10;23.20;1.00
20483;DHT22;10400;53.198;6.592;2023-08-21T09:00:37;23.30;1.00
20483;DHT22;10400;53.198;6.592;2023-08-21T09:03:05;23.20;1.00
20483;DHT22;10400;53.198;6.592;2023-08-21T09:05:33;23.20;1.00
20483;DHT22;10400;53.198;6.592;2023-08-21T09:08:10;23.20;1.00
20483;DHT22;10400;53.198;6.592;2023-08-21T09:10:37;23.40;1.00
20483;DHT22;10400;53.198;6.592;2023-08-21T09:13:17;23.30;1.00
20483;DHT22;10400;53.198;6.592;2023-08-21T09:15:53;23.30;1.00
20483;DHT22;10400;53.198;6.592;2023-08-21T09:18:19;23.30;1.00
20483;DHT22;10400;53.198;6.592;2023-08-21T09:20:57;23.20;1.00
20483;DHT22;10400;53.198;6.592;2023-08-21T09:23:23;23.30;1.00
20483;DHT22;10400;53.198;6.592;2023-08-21T09:25:52;23.40;1.00
20483;DHT22;10400;53.198;6.592;2023-08-21T09:28:21;23.50;99.90
20483;DHT22;10400;53.198;6.592;2023-08-21T09:30:54;23.70;99.90
20483;DHT22;10400;53.198;6.592;2023-08-21T09:33:24;23.80;99.90
20483;DHT22;10400;53.198;6.592;2023-08-21T09:36:09;24.00;99.90
20483;DHT22;10400;53.198;6.592;2023-08-21T09:38:35;23.80;1.00
20483;DHT22;10400;53.198;6.592;2023-08-21T09:41:03;24.10;99.90
20483;DHT22;10400;53.198;6.592;2023-08-21T09:43:29;24.20;1.00
20483;DHT22;10400;53.198;6.592;2023-08-21T09:45:55;24.40;99.90
20483;DHT22;10400;53.198;6.592;2023-08-21T09:48:25;24.50;1.00
20483;DHT22;10400;53.198;6.592;2023-08-21T09:50:55;24.70;1.00
20483;DHT22;10400;53.198;6.592;2023-08-21T09:53:21;24.70;99.90
20483;DHT22;10400;53.198;6.592;2023-08-21T09:55:52;24.80;1.00
20483;DHT22;10400;53.198;6.592;2023-08-21T09:58:19;24.60;1.00
20483;DHT22;10400;53.198;6.592;2023-08-21T10:00:45;24.50;99.90
20483;DHT22;10400;53.198;6.592;2023-08-21T10:03:17;24.60;1.00
20483;DHT22;10400;53.198;6.592;2023-08-21T10:05:43;24.60;99.90
20483;DHT22;10400;53.198;6.592;2023-08-21T10:08:11;24.60;1.00
20483;DHT22;10400;53.198;6.592;2023-08-21T10:10:38;24.80;99.90
20483;DHT22;10400;53.198;6.592;2023-08-21T10:13:05;24.60;1.00
20483;DHT22;10400;53.198;6.592;2023-08-21T10:15:32;24.80;1.00
20483;DHT22;10400;53.198;6.592;2023-08-21T10:20:47;25.00;99.90
20483;DHT22;10400;53.198;6.592;2023-08-21T10:23:28;25.00;1.00
20483;DHT22;10400;53.198;6.592;2023-08-21T10:25:55;25.10;1.00
20483;DHT22;10400;53.198;6.592;2023-08-21T10:28:22;25.10;99.90
20483;DHT22;10400;53.198;6.592;2023-08-21T10:30:48;25.20;1.00
20483;DHT22;10400;53.198;6.592;2023-08-21T10:33:13;25.30;99.90
20483;DHT22;10400;53.198;6.592;2023-08-21T10:35:40;25.20;1.00
20483;DHT22;10400;53.198;6.592;2023-08-21T10:41:06;25.30;1.00
20483;DHT22;10400;53.198;6.592;2023-08-21T10:43:43;25.60;1.00
20483;DHT22;10400;53.198;6.592;2023-08-21T10:46:09;25.40;1.00
20483;DHT22;10400;53.198;6.592;2023-08-21T10:48:38;25.60;99.90
20483;DHT22;10400;53.198;6.592;2023-08-21T10:51:06;25.80;99.90
20483;DHT22;10400;53.198;6.592;2023-08-21T10:53:33;25.90;1.00
20483;DHT22;10400;53.198;6.592;2023-08-21T10:56:04;25.70;99.90
20483;DHT22;10400;53.198;6.592;2023-08-21T10:58:42;25.60;99.90
20483;DHT22;10400;53.198;6.592;2023-08-21T11:01:08;25.50;99.90
20483;DHT22;10400;53.198;6.592;2023-08-21T11:03:35;25.70;99.90
20483;DHT22;10400;53.198;6.592;2023-08-21T11:06:08;25.90;1.00
20483;DHT22;10400;53.198;6.592;2023-08-21T11:08:35;25.70;71.90
20483;DHT22;10400;53.198;6.592;2023-08-21T11:11:05;25.80;1.00
20483;DHT22;10400;53.198;6.592;2023-08-21T11:13:31;25.70;1.00
20483;DHT22;10400;53.198;6.592;2023-08-21T11:16:03;25.60;1.00
20483;DHT22;10400;53.198;6.592;2023-08-21T11:18:33;25.80;1.00
20483;DHT22;10400;53.198;6.592;2023-08-21T11:21:12;25.70;99.90
20483;DHT22;10400;53.198;6.592;2023-08-21T11:23:42;25.50;99.90
20483;DHT22;10400;53.198;6.592;2023-08-21T11:26:19;25.70;99.90
20483;DHT22;10400;53.198;6.592;2023-08-21T11:28:52;25.60;55.70
20483;DHT22;10400;53.198;6.592;2023-08-21T11:31:23;25.60;1.00
20483;DHT22;10400;53.198;6.592;2023-08-21T11:33:51;25.70;1.00
20483;DHT22;10400;53.198;6.592;2023-08-21T11:36:24;25.90;1.00
20483;DHT22;10400;53.198;6.592;2023-08-21T11:39:01;26.10;1.00
20483;DHT22;10400;53.198;6.592;2023-08-21T11:41:29;26.20;1.00
20483;DHT22;10400;53.198;6.592;2023-08-21T11:44:02;26.40;1.00
20483;DHT22;10400;53.198;6.592;2023-08-21T11:46:29;26.60;1.00
20483;DHT22;10400;53.198;6.592;2023-08-21T11:48:54;26.70;1.00
20483;DHT22;10400;53.198;6.592;2023-08-21T11:51:20;26.60;1.00
20483;DHT22;10400;53.198;6.592;2023-08-21T11:53:50;26.60;1.00
20483;DHT22;10400;53.198;6.592;2023-08-21T11:56:17;26.50;1.00
20483;DHT22;10400;53.198;6.592;2023-08-21T11:58:44;26.60;1.00
20483;DHT22;10400;53.198;6.592;2023-08-21T12:01:11;26.60;1.00
20483;DHT22;10400;53.198;6.592;2023-08-21T12:03:41;26.50;1.00
20483;DHT22;10400;53.198;6.592;2023-08-21T12:06:07;26.50;1.00
20483;DHT22;10400;53.198;6.592;2023-08-21T12:08:33;26.80;1.00
20483;DHT22;10400;53.198;6.592;2023-08-21T12:10:58;26.70;1.00
20483;DHT22;10400;53.198;6.592;2023-08-21T12:13:24;26.00;1.00
20483;DHT22;10400;53.198;6.592;2023-08-21T12:15:49;25.90;1.00
20483;DHT22;10400;53.198;6.592;2023-08-21T12:18:15;25.90;1.00
20483;DHT22;10400;53.198;6.592;2023-08-21T12:20:41;26.00;1.00
20483;DHT22;10400;53.198;6.592;2023-08-21T12:23:06;26.00;1.00
20483;DHT22;10400;53.198;6.592;2023-08-21T12:25:32;26.10;1.00
20483;DHT22;10400;53.198;6.592;2023-08-21T12:27:58;26.40;1.00
20483;DHT22;10400;53.198;6.592;2023-08-21T12:30:24;26.60;1.00
20483;DHT22;10400;53.198;6.592;2023-08-21T12:32:50;26.40;1.00
20483;DHT22;10400;53.198;6.592;2023-08-21T12:35:16;26.20;1.00
20483;DHT22;10400;53.198;6.592;2023-08-21T12:37:42;25.90;1.00
20483;DHT22;10400;53.198;6.592;2023-08-21T12:40:07;25.70;1.00
20483;DHT22;10400;53.198;6.592;2023-08-21T12:42:34;25.60;1.00
20483;DHT22;10400;53.198;6.592;2023-08-21T12:44:59;26.00;1.00
20483;DHT22;10400;53.198;6.592;2023-08-21T12:47:25;26.20;1.00
20483;DHT22;10400;53.198;6.592;2023-08-21T12:49:51;26.40;1.00
20483;DHT22;10400;53.198;6.592;2023-08-21T12:52:16;26.60;1.00
20483;DHT22;10400;53.198;6.592;2023-08-21T12:54:45;26.60;1.00
20483;DHT22;10400;53.198;6.592;2023-08-21T12:57:10;26.70;1.00
20483;DHT22;10400;53.198;6.592;2023-08-21T12:59:37;26.60;1.00
20483;DHT22;10400;53.198;6.592;2023-08-21T13:02:03;26.80;1.00
20483;DHT22;10400;53.198;6.592;2023-08-21T13:04:29;27.10;1.00
20483;DHT22;10400;53.198;6.592;2023-08-21T13:06:55;26.90;1.00
20483;DHT22;10400;53.198;6.592;2023-08-21T13:09:20;26.60;1.00
20483;DHT22;10400;53.198;6.592;2023-08-21T13:11:46;26.10;1.00
20483;DHT22;10400;53.198;6.592;2023-08-21T13:14:12;26.20;1.00
20483;DHT22;10400;53.198;6.592;2023-08-21T13:16:37;26.50;1.00
20483;DHT22;10400;53.198;6.592;2023-08-21T13:19:03;26.80;1.00
20483;DHT22;10400;53.198;6.592;2023-08-21T13:21:32;27.00;1.00
20483;DHT22;10400;53.198;6.592;2023-08-21T13:23:57;27.30;1.00
20483;DHT22;10400;53.198;6.592;2023-08-21T13:26:23;27.30;1.00
20483;DHT22;10400;53.198;6.592;2023-08-21T13:28:51;27.30;1.00
20483;DHT22;10400;53.198;6.592;2023-08-21T13:31:17;27.10;1.00
20483;DHT22;10400;53.198;6.592;2023-08-21T13:33:50;27.50;1.00
20483;DHT22;10400;53.198;6.592;2023-08-21T13:36:16;27.30;1.00
20483;DHT22;10400;53.198;6.592;2023-08-21T13:38:43;27.10;1.00
20483;DHT22;10400;53.198;6.592;2023-08-21T13:41:08;27.30;1.00
20483;DHT22;10400;53.198;6.592;2023-08-21T13:43:35;27.00;1.00
20483;DHT22;10400;53.198;6.592;2023-08-21T13:46:01;26.80;1.00
20483;DHT22;10400;53.198;6.592;2023-08-21T13:48:29;26.60;1.00
20483;DHT22;10400;53.198;6.592;2023-08-21T13:50:56;26.80;1.00
20483;DHT22;10400;53.198;6.592;2023-08-21T13:53:21;26.80;1.00
20483;DHT22;10400;53.198;6.592;2023-08-21T13:55:47;27.00;1.00
20483;DHT22;10400;53.198;6.592;2023-08-21T13:58:13;27.20;1.00
20483;DHT22;10400;53.198;6.592;2023-08-21T14:00:39;27.30;1.00
20483;DHT22;10400;53.198;6.592;2023-08-21T14:03:08;27.40;1.00
20483;DHT22;10400;53.198;6.592;2023-08-21T14:05:33;27.40;1.00
20483;DHT22;10400;53.198;6.592;2023-08-21T14:08:00;27.60;1.00
20483;DHT22;10400;53.198;6.592;2023-08-21T14:10:26;27.70;1.00
20483;DHT22;10400;53.198;6.592;2023-08-21T14:12:54;27.50;1.00
20483;DHT22;10400;53.198;6.592;2023-08-21T14:15:22;27.30;1.00
20483;DHT22;10400;53.198;6.592;2023-08-21T14:17:48;27.00;1.00
20483;DHT22;10400;53.198;6.592;2023-08-21T14:20:15;27.00;1.00
20483;DHT22;10400;53.198;6.592;2023-08-21T14:22:41;27.20;1.00
20483;DHT22;10400;53.198;6.592;2023-08-21T14:25:16;27.40;1.00
20483;DHT22;10400;53.198;6.592;2023-08-21T14:27:48;27.70;1.00
20483;DHT22;10400;53.198;6.592;2023-08-21T14:30:22;27.70;1.00
20483;DHT22;10400;53.198;6.592;2023-08-21T14:32:51;27.20;1.00
20483;DHT22;10400;53.198;6.592;2023-08-21T14:35:19;26.80;1.00
20483;DHT22;10400;53.198;6.592;2023-08-21T14:38:11;27.00;1.00
20483;DHT22;10400;53.198;6.592;2023-08-21T14:40:42;27.10;1.00
20483;DHT22;10400;53.198;6.592;2023-08-21T14:43:17;27.20;1.00
20483;DHT22;10400;53.198;6.592;2023-08-21T14:46:02;27.50;1.00
20483;DHT22;10400;53.198;6.592;2023-08-21T14:48:41;27.50;1.00
20483;DHT22;10400;53.198;6.592;2023-08-21T14:51:12;27.50;1.00
20483;DHT22;10400;53.198;6.592;2023-08-21T14:53:43;27.40;99.90
20483;DHT22;10400;53.198;6.592;2023-08-21T14:56:16;27.50;99.90
20483;DHT22;10400;53.198;6.592;2023-08-21T14:58:50;27.50;99.90
20483;DHT22;10400;53.198;6.592;2023-08-21T15:01:29;27.60;99.90
20483;DHT22;10400;53.198;6.592;2023-08-21T15:04:00;27.70;99.90
20483;DHT22;10400;53.198;6.592;2023-08-21T15:06:34;27.70;99.90
20483;DHT22;10400;53.198;6.592;2023-08-21T15:09:09;27.70;99.90
20483;DHT22;10400;53.198;6.592;2023-08-21T15:11:38;27.60;99.90
20483;DHT22;10400;53.198;6.592;2023-08-21T15:14:10;27.70;99.90
20483;DHT22;10400;53.198;6.592;2023-08-21T15:16:37;27.80;99.90
20483;DHT22;10400;53.198;6.592;2023-08-21T15:19:03;27.90;99.90
20483;DHT22;10400;53.198;6.592;2023-08-21T15:21:28;28.00;99.90
20483;DHT22;10400;53.198;6.592;2023-08-21T15:23:54;27.50;99.90
20483;DHT22;10400;53.198;6.592;2023-08-21T15:26:20;27.70;99.90
20483;DHT22;10400;53.198;6.592;2023-08-21T15:28:47;27.60;99.90
20483;DHT22;10400;53.198;6.592;2023-08-21T15:31:13;27.30;99.90
20483;DHT22;10400;53.198;6.592;2023-08-21T15:33:44;27.50;99.90
20483;DHT22;10400;53.198;6.592;2023-08-21T15:36:17;27.40;1.00
20483;DHT22;10400;53.198;6.592;2023-08-21T15:38:46;27.20;1.00
20483;DHT22;10400;53.198;6.592;2023-08-21T15:41:20;27.00;1.00
20483;DHT22;10400;53.198;6.592;2023-08-21T15:43:50;26.80;1.00
20483;DHT22;10400;53.198;6.592;2023-08-21T15:46:17;26.50;1.00